createdAt,value
2023-04-22T00:01:27.992Z,9.73
2023-04-22T00:04:14.268Z,10.06
2023-04-22T00:07:00.289Z,9.82
2023-04-22T00:09:46.124Z,9.66
2023-04-22T00:12:32.048Z,9.88
2023-04-22T00:15:17.985Z,9.83
2023-04-22T00:18:04.013Z,10.73
2023-04-22T00:20:49.953Z,10.80
2023-04-22T00:23:35.731Z,10.86
2023-04-22T00:26:21.589Z,10.90
2023-04-22T00:29:07.350Z,10.88
2023-04-22T00:31:53.279Z,10.82
2023-04-22T00:34:39.192Z,11.18
2023-04-22T00:37:25.134Z,11.46
2023-04-22T00:40:10.960Z,11.54
2023-04-22T00:42:56.815Z,11.63
2023-04-22T00:45:42.705Z,11.44
2023-04-22T00:48:28.970Z,11.45
2023-04-22T00:51:14.955Z,11.52
2023-04-22T00:54:00.874Z,11.68
2023-04-22T00:56:46.731Z,11.74
2023-04-22T00:59:32.675Z,11.57
2023-04-22T01:02:18.634Z,11.16
2023-04-22T01:05:06.554Z,11.59
2023-04-22T01:07:52.432Z,11.56
2023-04-22T01:10:38.366Z,10.44
2023-04-22T01:13:24.248Z,10.31
2023-04-22T01:16:10.248Z,10.00
2023-04-22T01:18:56.377Z,9.89
2023-04-22T01:21:42.161Z,9.79
2023-04-22T01:24:28.004Z,10.33
2023-04-22T01:27:13.916Z,9.50
2023-04-22T01:29:59.873Z,9.66
2023-04-22T01:32:45.933Z,9.07
2023-04-22T01:35:31.722Z,9.27
2023-04-22T01:38:17.698Z,9.09
2023-04-22T01:41:03.630Z,9.67
2023-04-22T01:43:49.486Z,10.06
2023-04-22T01:46:35.476Z,10.35
2023-04-22T01:49:21.576Z,10.21
2023-04-22T01:52:07.384Z,10.41
2023-04-22T01:54:53.354Z,10.79
2023-04-22T01:57:39.166Z,10.91
2023-04-22T02:00:25.004Z,11.34
2023-04-22T02:03:11.077Z,11.42
2023-04-22T02:05:57.258Z,11.52
2023-04-22T02:08:43.158Z,11.71
2023-04-22T02:11:29.112Z,11.67
2023-04-22T02:14:14.935Z,11.59
2023-04-22T02:17:00.811Z,11.74
2023-04-22T02:19:46.557Z,12.01
2023-04-22T02:22:32.428Z,12.05
2023-04-22T02:25:18.287Z,12.08
2023-04-22T02:28:04.178Z,12.08
2023-04-22T02:30:50.014Z,11.28
2023-04-22T02:33:35.761Z,10.69
2023-04-22T02:36:21.609Z,9.80
2023-04-22T02:39:07.581Z,9.20
2023-04-22T02:41:53.673Z,9.37
2023-04-22T02:44:39.399Z,8.70
2023-04-22T02:47:25.167Z,9.01
2023-04-22T02:50:11.238Z,9.55
2023-04-22T02:52:57.074Z,9.25
2023-04-22T02:55:42.929Z,9.26
2023-04-22T02:58:28.808Z,9.69
2023-04-22T03:01:14.686Z,9.54
2023-04-22T03:04:00.812Z,9.74
2023-04-22T03:06:46.932Z,10.06
2023-04-22T03:09:32.691Z,9.94
2023-04-22T03:12:18.445Z,9.47
2023-04-22T03:15:04.582Z,9.71
2023-04-22T03:17:50.445Z,9.84
2023-04-22T03:20:36.377Z,9.72
2023-04-22T03:23:22.114Z,9.72
2023-04-22T03:26:07.939Z,9.36
2023-04-22T03:28:53.899Z,9.00
2023-04-22T03:31:39.723Z,9.02
2023-04-22T03:34:25.713Z,8.53
2023-04-22T03:37:11.687Z,8.62
2023-04-22T03:39:57.461Z,9.05
2023-04-22T03:42:43.311Z,9.01
2023-04-22T03:45:29.122Z,8.71
2023-04-22T03:48:14.973Z,8.84
2023-04-22T03:51:00.929Z,8.82
2023-04-22T03:53:46.790Z,9.07
2023-04-22T03:56:32.751Z,9.16
2023-04-22T03:59:18.506Z,9.11
2023-04-22T04:02:04.326Z,9.13
2023-04-22T04:04:50.537Z,8.74
2023-04-22T04:07:36.613Z,9.04
2023-04-22T04:10:22.404Z,8.98
2023-04-22T04:13:08.415Z,8.76
2023-04-22T04:15:54.302Z,8.77
2023-04-22T04:18:42.086Z,8.60
2023-04-22T04:21:28.010Z,8.53
2023-04-22T04:24:13.862Z,8.57
2023-04-22T04:26:59.671Z,8.45
2023-04-22T04:29:45.400Z,8.45
2023-04-22T04:32:31.455Z,8.35
2023-04-22T04:35:17.462Z,8.27
2023-04-22T04:38:03.181Z,8.51
2023-04-22T04:40:49.024Z,8.58
2023-04-22T04:43:34.892Z,8.83
2023-04-22T04:46:20.751Z,8.86
2023-04-22T04:49:06.764Z,8.86
2023-04-22T04:51:52.457Z,8.86
2023-04-22T04:54:38.279Z,9.66
2023-04-22T04:57:24.239Z,9.75
2023-04-22T05:00:10.052Z,9.17
2023-04-22T05:02:56.085Z,8.50
2023-04-22T05:05:42.322Z,9.03
2023-04-22T05:08:28.127Z,9.78
2023-04-22T05:11:13.947Z,9.86
2023-04-22T05:13:59.706Z,9.82
2023-04-22T05:16:45.613Z,9.81
2023-04-22T05:19:31.417Z,9.57
2023-04-22T05:22:17.244Z,9.36
2023-04-22T05:25:03.111Z,9.51
2023-04-22T05:27:48.889Z,9.14
2023-04-22T05:30:34.812Z,9.42
2023-04-22T05:33:20.605Z,9.67
2023-04-22T05:36:06.525Z,9.59
2023-04-22T05:38:52.366Z,9.72
2023-04-22T05:41:38.240Z,10.51
2023-04-22T05:44:24.058Z,10.32
2023-04-22T05:47:09.971Z,10.15
2023-04-22T05:49:55.905Z,10.37
2023-04-22T05:52:41.807Z,10.63
2023-04-22T05:55:27.712Z,10.68
2023-04-22T05:58:13.517Z,10.69
2023-04-22T06:00:59.406Z,10.64
2023-04-22T06:03:45.471Z,10.76
2023-04-22T06:06:31.808Z,10.34
2023-04-22T06:09:17.821Z,11.03
2023-04-22T06:12:03.706Z,10.40
2023-04-22T06:14:49.651Z,9.55
2023-04-22T06:17:35.578Z,10.22
2023-04-22T06:20:21.416Z,11.06
2023-04-22T06:23:07.323Z,11.66
2023-04-22T06:25:53.148Z,11.42
2023-04-22T06:28:39.068Z,12.01
2023-04-22T06:31:25.011Z,12.54
2023-04-22T06:34:10.744Z,12.42
2023-04-22T06:36:56.509Z,12.69
2023-04-22T06:39:42.645Z,12.76
2023-04-22T06:42:29.193Z,12.55
2023-04-22T06:45:15.170Z,12.87
2023-04-22T06:48:01.091Z,12.82
2023-04-22T06:50:47.050Z,13.32
2023-04-22T06:53:33.119Z,13.61
2023-04-22T06:56:19.065Z,13.96
2023-04-22T06:59:05.034Z,14.10
2023-04-22T07:01:50.798Z,14.34
2023-04-22T07:04:36.649Z,14.58
2023-04-22T07:07:22.634Z,14.81
2023-04-22T07:10:08.396Z,14.68
2023-04-22T07:12:54.272Z,14.19
2023-04-22T07:15:40.139Z,13.65
2023-04-22T07:18:25.930Z,13.42
2023-04-22T07:21:11.831Z,13.79
2023-04-22T07:23:57.720Z,13.89
2023-04-22T07:26:43.688Z,14.42
2023-04-22T07:29:29.646Z,14.58
2023-04-22T07:32:15.506Z,15.07
2023-04-22T07:35:01.374Z,14.28
2023-04-22T07:37:47.190Z,13.08
2023-04-22T07:40:33.064Z,12.10
2023-04-22T07:43:19.009Z,12.11
2023-04-22T07:46:04.897Z,12.22
2023-04-22T07:48:50.812Z,12.45
2023-04-22T07:51:36.840Z,12.23
2023-04-22T07:54:22.616Z,12.23
2023-04-22T07:57:08.568Z,13.29
2023-04-22T07:59:54.558Z,13.78
2023-04-22T08:02:40.429Z,14.14
2023-04-22T08:05:26.369Z,14.24
2023-04-22T08:08:12.202Z,14.78
2023-04-22T08:10:58.127Z,14.93
2023-04-22T08:13:44.046Z,15.07
2023-04-22T08:16:29.865Z,15.62
2023-04-22T08:19:15.756Z,16.03
2023-04-22T08:22:01.529Z,16.22
2023-04-22T08:24:47.409Z,16.53
2023-04-22T08:27:35.367Z,16.70
2023-04-22T08:30:21.382Z,16.16
2023-04-22T08:33:07.541Z,14.28
2023-04-22T08:35:53.505Z,14.27
2023-04-22T08:38:39.369Z,13.40
2023-04-22T08:41:25.275Z,13.67
2023-04-22T08:44:11.107Z,13.74
2023-04-22T08:46:57.133Z,12.97
2023-04-22T08:49:43.361Z,12.62
2023-04-22T08:52:29.249Z,12.99
2023-04-22T08:55:15.155Z,12.78
2023-04-22T08:58:01.252Z,13.04
2023-04-22T09:00:47.034Z,12.89
2023-04-22T09:03:32.902Z,13.96
2023-04-22T09:06:18.988Z,14.71
2023-04-22T09:09:04.921Z,15.16
2023-04-22T09:11:50.826Z,15.58
2023-04-22T09:14:36.852Z,16.03
2023-04-22T09:17:22.830Z,16.07
2023-04-22T09:20:17.189Z,16.48
2023-04-22T09:23:03.103Z,16.28
2023-04-22T09:25:48.893Z,16.51
2023-04-22T09:28:34.826Z,16.55
2023-04-22T09:31:20.982Z,16.11
2023-04-22T09:34:06.946Z,15.59
2023-04-22T09:36:52.852Z,15.54
2023-04-22T09:39:38.999Z,15.57
2023-04-22T09:42:25.021Z,16.09
2023-04-22T09:45:10.866Z,16.40
2023-04-22T09:47:56.900Z,16.62
2023-04-22T09:50:43.201Z,17.10
2023-04-22T09:53:28.956Z,17.39
2023-04-22T09:56:14.696Z,17.17
2023-04-22T09:59:00.642Z,17.58
2023-04-22T10:01:46.697Z,17.33
2023-04-22T10:04:33.181Z,17.28
2023-04-22T10:07:19.157Z,17.11
2023-04-22T10:10:04.879Z,17.40
2023-04-22T10:12:50.720Z,17.67
2023-04-22T10:15:36.688Z,17.69
2023-04-22T10:18:22.383Z,17.53
2023-04-22T10:21:08.335Z,17.65
2023-04-22T10:23:54.107Z,17.88
2023-04-22T10:26:39.900Z,17.89
2023-04-22T10:29:25.841Z,17.66
2023-04-22T10:32:13.562Z,17.12
2023-04-22T10:34:59.360Z,17.66
2023-04-22T10:37:45.279Z,17.60
2023-04-22T10:40:31.470Z,17.69
2023-04-22T10:43:17.391Z,17.38
2023-04-22T10:46:03.134Z,17.59
2023-04-22T10:48:48.972Z,17.62
2023-04-22T10:51:34.921Z,17.48
2023-04-22T10:54:20.628Z,17.51
2023-04-22T10:57:06.716Z,17.55
2023-04-22T10:59:52.988Z,17.67
2023-04-22T11:02:38.933Z,17.60
2023-04-22T11:05:26.244Z,17.38
2023-04-22T11:08:12.626Z,17.24
2023-04-22T11:10:58.437Z,17.16
2023-04-22T11:13:44.507Z,17.32
2023-04-22T11:16:30.333Z,17.18
2023-04-22T11:19:16.250Z,17.09
2023-04-22T11:22:02.239Z,17.07
2023-04-22T11:24:48.027Z,16.84
2023-04-22T11:27:33.896Z,16.42
2023-04-22T11:30:19.770Z,16.36
2023-04-22T11:33:05.605Z,15.98
2023-04-22T11:35:51.441Z,15.58
2023-04-22T11:38:37.198Z,15.86
2023-04-22T11:41:23.129Z,15.96
2023-04-22T11:44:09.026Z,15.71
2023-04-22T11:46:54.888Z,15.34
2023-04-22T11:49:40.959Z,15.53
2023-04-22T11:52:27.303Z,15.39
2023-04-22T11:55:13.190Z,15.14
2023-04-22T11:57:59.082Z,15.28
2023-04-22T12:00:44.845Z,15.29
2023-04-22T12:03:31.230Z,15.18
2023-04-22T12:06:17.833Z,15.46
2023-04-22T12:09:03.712Z,15.15
2023-04-22T12:11:49.561Z,14.73
2023-04-22T12:14:35.498Z,14.71
2023-04-22T12:17:21.394Z,13.50
2023-04-22T12:20:07.313Z,14.19
2023-04-22T12:22:53.108Z,14.39
2023-04-22T12:25:39.110Z,15.03
2023-04-22T12:28:25.008Z,15.33
2023-04-22T12:31:10.796Z,15.68
2023-04-22T12:33:56.844Z,15.09
2023-04-22T12:36:43.038Z,14.97
2023-04-22T12:39:29.115Z,15.39
2023-04-22T12:42:15.311Z,15.80
2023-04-22T12:45:01.522Z,15.96
2023-04-22T12:47:47.440Z,16.25
2023-04-22T12:50:33.372Z,16.66
2023-04-22T12:53:19.150Z,16.81
2023-04-22T12:56:05.031Z,16.91
2023-04-22T12:58:50.698Z,16.96
2023-04-22T13:01:36.665Z,16.96
2023-04-22T13:04:22.795Z,16.80
2023-04-22T13:07:08.832Z,16.56
2023-04-22T13:09:54.890Z,16.98
2023-04-22T13:12:40.950Z,17.28
2023-04-22T13:15:26.798Z,17.64
2023-04-22T13:18:12.647Z,17.76
2023-04-22T13:20:58.390Z,18.01
2023-04-22T13:23:44.246Z,18.22
2023-04-22T13:26:30.325Z,18.31
2023-04-22T13:29:16.186Z,18.59
2023-04-22T13:32:02.162Z,18.67
2023-04-22T13:34:48.049Z,18.79
2023-04-22T13:37:33.924Z,19.00
2023-04-22T13:40:19.856Z,18.37
2023-04-22T13:43:05.525Z,17.88
2023-04-22T13:45:51.502Z,17.58
2023-04-22T13:48:37.533Z,17.67
2023-04-22T13:51:23.396Z,17.23
2023-04-22T13:54:09.472Z,17.74
2023-04-22T13:56:55.245Z,18.15
2023-04-22T13:59:41.309Z,18.30
2023-04-22T14:02:27.748Z,18.63
2023-04-22T14:05:13.860Z,18.79
2023-04-22T14:08:01.928Z,18.81
2023-04-22T14:10:47.903Z,19.09
2023-04-22T14:13:33.712Z,19.19
2023-04-22T14:16:19.578Z,19.07
2023-04-22T14:19:05.513Z,18.98
2023-04-22T14:21:51.312Z,19.09
2023-04-22T14:24:37.293Z,19.32
2023-04-22T14:27:23.197Z,19.58
2023-04-22T14:30:09.109Z,19.58
2023-04-22T14:32:55.143Z,19.56
2023-04-22T14:35:40.970Z,19.76
2023-04-22T14:38:26.899Z,19.13
2023-04-22T14:41:12.816Z,19.23
2023-04-22T14:43:59.778Z,18.76
2023-04-22T14:46:45.673Z,19.19
2023-04-22T14:49:33.200Z,19.54
2023-04-22T14:52:19.378Z,19.76
2023-04-22T14:55:15.423Z,19.98
2023-04-22T14:58:05.557Z,20.10
2023-04-22T15:00:51.311Z,20.20
2023-04-22T15:03:37.314Z,19.42
2023-04-22T15:06:23.250Z,18.67
2023-04-22T15:09:09.207Z,18.59
2023-04-22T15:11:55.189Z,18.51
2023-04-22T15:14:40.906Z,18.76
2023-04-22T15:17:26.879Z,18.90
2023-04-22T15:20:12.722Z,19.10
2023-04-22T15:22:58.605Z,19.05
2023-04-22T15:25:44.552Z,18.85
2023-04-22T15:28:30.372Z,18.92
2023-04-22T15:31:16.370Z,18.62
2023-04-22T15:34:02.141Z,18.41
2023-04-22T15:36:47.995Z,18.35
2023-04-22T15:39:33.900Z,18.36
2023-04-22T15:42:19.560Z,18.13
2023-04-22T15:45:05.579Z,18.17
2023-04-22T15:47:51.385Z,18.45
2023-04-22T15:50:39.883Z,19.07
2023-04-22T15:53:26.293Z,19.23
2023-04-22T15:56:12.145Z,19.16
2023-04-22T15:58:58.028Z,19.15
2023-04-22T16:01:46.040Z,19.31
2023-04-22T16:04:32.398Z,19.13
2023-04-22T16:07:18.633Z,19.12
2023-04-22T16:10:04.503Z,19.31
2023-04-22T16:12:50.378Z,19.33
2023-04-22T16:15:36.326Z,19.45
2023-04-22T16:18:22.542Z,19.45
2023-04-22T16:21:08.368Z,19.19
2023-04-22T16:23:54.305Z,19.45
2023-04-22T16:26:40.221Z,19.46
2023-04-22T16:29:26.080Z,19.64
2023-04-22T16:32:12.051Z,19.88
2023-04-22T16:34:57.790Z,19.84
2023-04-22T16:37:43.834Z,19.96
2023-04-22T16:40:29.761Z,20.25
2023-04-22T16:43:15.591Z,20.33
2023-04-22T16:46:01.520Z,20.44
2023-04-22T16:48:47.319Z,20.52
2023-04-22T16:51:33.263Z,20.47
2023-04-22T16:54:19.149Z,20.41
2023-04-22T16:57:05.142Z,20.15
2023-04-22T16:59:51.112Z,19.84
2023-04-22T17:02:37.236Z,19.23
2023-04-22T17:05:23.450Z,18.92
2023-04-22T17:08:09.278Z,18.75
2023-04-22T17:10:55.207Z,17.96
2023-04-22T17:13:40.993Z,17.46
2023-04-22T17:16:27.165Z,17.59
2023-04-22T17:19:12.952Z,17.75
2023-04-22T17:21:58.828Z,17.74
2023-04-22T17:24:44.639Z,17.69
2023-04-22T17:27:30.496Z,17.75
2023-04-22T17:30:16.420Z,17.91
2023-04-22T17:33:02.234Z,17.90
2023-04-22T17:35:48.051Z,17.97
2023-04-22T17:38:33.920Z,18.03
2023-04-22T17:41:19.670Z,18.22
2023-04-22T17:44:05.535Z,18.22
2023-04-22T17:46:51.414Z,17.86
2023-04-22T17:49:37.612Z,17.72
2023-04-22T17:52:23.632Z,17.23
2023-04-22T17:55:09.418Z,17.43
2023-04-22T17:57:55.376Z,17.65
2023-04-22T18:00:41.359Z,17.42
2023-04-22T18:03:27.253Z,17.18
2023-04-22T18:06:13.554Z,17.48
2023-04-22T18:08:59.521Z,17.17
2023-04-22T18:11:45.419Z,17.32
2023-04-22T18:14:31.392Z,17.22
2023-04-22T18:17:17.197Z,17.39
2023-04-22T18:20:16.759Z,17.48
2023-04-22T18:23:04.375Z,17.56
2023-04-22T18:25:50.269Z,17.11
2023-04-22T18:28:36.151Z,17.35
2023-04-22T18:31:22.017Z,17.20
2023-04-22T18:34:07.803Z,17.01
2023-04-22T18:36:53.788Z,16.75
2023-04-22T18:39:39.718Z,16.61
2023-04-22T18:42:25.923Z,16.95
2023-04-22T18:45:11.861Z,16.66
2023-04-22T18:47:57.742Z,16.97
2023-04-22T18:50:43.684Z,16.97
2023-04-22T18:53:29.538Z,16.74
2023-04-22T18:56:15.360Z,16.72
2023-04-22T18:59:01.193Z,16.55
2023-04-22T19:01:47.007Z,16.50
2023-04-22T19:04:32.948Z,16.24
2023-04-22T19:07:18.904Z,15.97
2023-04-22T19:10:04.828Z,15.36
2023-04-22T19:12:50.816Z,15.27
2023-04-22T19:15:36.656Z,15.30
2023-04-22T19:18:22.677Z,15.46
2023-04-22T19:21:08.545Z,15.63
2023-04-22T19:23:54.354Z,15.87
2023-04-22T19:26:40.321Z,15.92
2023-04-22T19:29:26.253Z,15.82
2023-04-22T19:32:12.165Z,15.96
2023-04-22T19:34:58.154Z,15.82
2023-04-22T19:37:43.964Z,15.77
2023-04-22T19:40:29.729Z,15.84
2023-04-22T19:43:17.746Z,15.56
2023-04-22T19:46:03.470Z,15.60
2023-04-22T19:48:49.575Z,15.65
2023-04-22T19:51:35.388Z,15.80
2023-04-22T19:54:21.218Z,15.78
2023-04-22T19:57:07.229Z,15.62
2023-04-22T19:59:53.975Z,15.68
2023-04-22T20:02:39.952Z,15.48
2023-04-22T20:05:26.299Z,15.63
2023-04-22T20:08:12.074Z,15.84
2023-04-22T20:10:57.947Z,16.04
2023-04-22T20:13:44.505Z,15.94
2023-04-22T20:16:31.729Z,15.98
2023-04-22T20:19:17.670Z,16.06
2023-04-22T20:22:03.485Z,16.23
2023-04-22T20:24:49.277Z,16.31
2023-04-22T20:27:35.240Z,16.21
2023-04-22T20:30:21.110Z,16.13
2023-04-22T20:33:07.036Z,16.00
2023-04-22T20:35:52.990Z,15.86
2023-04-22T20:38:38.697Z,15.85
2023-04-22T20:41:24.771Z,15.84
2023-04-22T20:44:10.636Z,15.98
2023-04-22T20:46:56.494Z,16.02
2023-04-22T20:49:42.455Z,15.77
2023-04-22T20:52:28.292Z,15.73
2023-04-22T20:55:14.174Z,15.66
2023-04-22T20:58:00.118Z,15.51
2023-04-22T21:00:45.983Z,15.16
2023-04-22T21:03:32.083Z,15.53
2023-04-22T21:06:18.218Z,15.06
2023-04-22T21:09:04.166Z,14.78
2023-04-22T21:11:50.144Z,15.07
2023-04-22T21:14:35.911Z,15.16
2023-04-22T21:17:21.842Z,15.28
2023-04-22T21:20:07.802Z,14.92
2023-04-22T21:22:53.637Z,14.97
2023-04-22T21:25:39.545Z,14.95
2023-04-22T21:28:25.291Z,14.94
2023-04-22T21:31:11.164Z,14.82
2023-04-22T21:33:57.038Z,14.98
2023-04-22T21:36:42.910Z,15.23
2023-04-22T21:39:28.893Z,15.28
2023-04-22T21:42:14.722Z,15.26
2023-04-22T21:45:00.527Z,14.97
2023-04-22T21:47:46.459Z,15.14
2023-04-22T21:50:32.245Z,14.87
2023-04-22T21:53:18.224Z,14.88
2023-04-22T21:56:04.173Z,14.62
2023-04-22T21:58:51.998Z,14.64
2023-04-22T22:01:38.058Z,14.35
2023-04-22T22:04:24.027Z,14.06
2023-04-22T22:07:10.027Z,13.81
2023-04-22T22:09:56.034Z,13.79
2023-04-22T22:12:41.675Z,14.11
2023-04-22T22:15:27.503Z,13.94
2023-04-22T22:18:13.445Z,14.06
2023-04-22T22:20:59.334Z,14.11
2023-04-22T22:23:45.241Z,14.31
2023-04-22T22:26:31.159Z,14.60
2023-04-22T22:29:17.076Z,14.50
2023-04-22T22:32:03.163Z,14.83
2023-04-22T22:34:49.019Z,15.03
2023-04-22T22:37:35.003Z,15.13
2023-04-22T22:40:20.958Z,15.29
2023-04-22T22:43:06.808Z,15.20
2023-04-22T22:45:52.737Z,14.95
2023-04-22T22:48:38.557Z,14.70
2023-04-22T22:51:24.531Z,13.91
2023-04-22T22:54:10.480Z,13.92
2023-04-22T22:56:56.359Z,13.30
2023-04-22T22:59:42.110Z,13.01
2023-04-22T23:05:56.350Z,12.52
2023-04-22T23:08:42.131Z,12.64
2023-04-22T23:11:27.955Z,12.63
2023-04-22T23:14:13.873Z,12.80
2023-04-22T23:16:59.777Z,12.52
2023-04-22T23:19:45.810Z,12.27
2023-04-22T23:22:31.790Z,12.37
2023-04-22T23:25:17.615Z,12.21
2023-04-22T23:28:03.666Z,12.22
2023-04-22T23:30:49.711Z,12.10
2023-04-22T23:33:35.543Z,12.10
2023-04-22T23:36:21.407Z,12.05
2023-04-22T23:39:07.216Z,12.17
2023-04-22T23:41:53.081Z,12.01
2023-04-22T23:44:39.063Z,12.23
2023-04-22T23:47:25.729Z,12.12
2023-04-22T23:50:11.834Z,12.10
2023-04-22T23:52:57.550Z,12.27
2023-04-22T23:55:43.569Z,11.71
2023-04-22T23:58:29.498Z,11.65
